Time;durP1;ratioP1;P1;durP2;ratioP2;P2;SDS_P1;SDS_P2;PMS_P1;PMS_P2;Temp;Humidity;BMP_temperature;BMP_pressure;BME280_temperature;BME280_humidity;BME280_pressure;Samples;Min_cycle;Max_cycle;Signal;HPM_P1;HPM_P2
2022/12/01 00:00:18;;;;;;;;;;;18.80;62.00;;;;;;5057247;28;890;-70
2022/12/01 00:02:43;;;;;;;;;;;18.80;62.00;;;;;;5058488;28;865;-71
2022/12/01 00:05:09;;;;;;;;;;;18.80;62.00;;;;;;5059361;28;857;-70
2022/12/01 00:07:34;;;;;;;;;;;18.70;61.90;;;;;;5062246;28;940;-70
2022/12/01 00:12:43;;;;;;;;;;;18.70;62.00;;;;;;5064685;28;1274;-70
2022/12/01 00:15:10;;;;;;;;;;;18.80;62.00;;;;;;5062778;28;1244;-71
2022/12/01 00:17:35;;;;;;;;;;;18.70;62.00;;;;;;5060340;28;811;-70
2022/12/01 00:20:01;;;;;;;;;;;18.70;62.00;;;;;;5061671;28;1910;-71
2022/12/01 00:22:26;;;;;;;;;;;18.70;62.00;;;;;;5060072;28;998;-70
2022/12/01 00:24:52;;;;;;;;;;;18.80;62.00;;;;;;5060635;28;870;-70
2022/12/01 00:27:17;;;;;;;;;;;18.70;62.00;;;;;;5062517;28;905;-71
2022/12/01 00:29:44;;;;;;;;;;;18.70;62.00;;;;;;5062179;28;1251;-71
2022/12/01 00:32:09;;;;;;;;;;;18.70;62.10;;;;;;5043969;28;922;-70
2022/12/01 00:34:36;;;;;;;;;;;18.80;62.10;;;;;;5058038;28;887;-70
2022/12/01 00:37:02;;;;;;;;;;;18.70;62.10;;;;;;5063450;28;851;-70
2022/12/01 00:39:27;;;;;;;;;;;18.70;62.10;;;;;;5058816;28;1890;-70
2022/12/01 00:41:53;;;;;;;;;;;18.70;62.10;;;;;;5062450;28;895;-70
2022/12/01 00:44:18;;;;;;;;;;;18.70;62.10;;;;;;5063721;28;903;-70
2022/12/01 00:46:44;;;;;;;;;;;18.70;62.10;;;;;;5058533;28;878;-70
2022/12/01 00:49:11;;;;;;;;;;;18.70;62.10;;;;;;5063346;28;1350;-70
2022/12/01 00:51:36;;;;;;;;;;;18.70;62.10;;;;;;5046013;28;875;-70
2022/12/01 00:54:02;;;;;;;;;;;18.70;62.10;;;;;;5058963;28;1018;-71
2022/12/01 00:56:27;;;;;;;;;;;18.70;62.10;;;;;;5056948;28;966;-70
2022/12/01 00:58:53;;;;;;;;;;;18.70;62.20;;;;;;5040080;28;1972;-70
2022/12/01 01:01:18;;;;;;;;;;;18.70;62.20;;;;;;5061112;28;927;-70
2022/12/01 01:03:44;;;;;;;;;;;18.70;62.20;;;;;;5058378;28;1166;-70
2022/12/01 01:06:10;;;;;;;;;;;18.70;62.20;;;;;;5060132;28;872;-70
2022/12/01 01:08:35;;;;;;;;;;;18.70;62.20;;;;;;5052346;28;1296;-70
2022/12/01 01:11:01;;;;;;;;;;;18.70;62.20;;;;;;5043933;28;995;-70
2022/12/01 01:13:26;;;;;;;;;;;18.70;62.20;;;;;;5064345;28;1105;-70
2022/12/01 01:15:56;;;;;;;;;;;18.70;63.00;;;;;;5043032;28;1007;-70
2022/12/01 01:18:21;;;;;;;;;;;18.70;62.20;;;;;;5057708;28;1905;-70
2022/12/01 01:20:53;;;;;;;;;;;18.70;62.20;;;;;;5042782;28;1351;-70
2022/12/01 01:23:19;;;;;;;;;;;18.70;62.20;;;;;;5061310;28;822;-70
2022/12/01 01:25:44;;;;;;;;;;;18.70;62.30;;;;;;5059560;28;958;-70
2022/12/01 01:28:10;;;;;;;;;;;18.70;62.20;;;;;;5062219;28;1349;-70
2022/12/01 01:30:37;;;;;;;;;;;18.60;62.20;;;;;;5060873;28;1159;-70
2022/12/01 01:33:03;;;;;;;;;;;18.60;62.20;;;;;;5062233;28;1014;-70
2022/12/01 01:35:28;;;;;;;;;;;18.70;62.30;;;;;;5060811;28;831;-70
2022/12/01 01:37:54;;;;;;;;;;;18.70;62.30;;;;;;5061065;28;1275;-70
2022/12/01 01:40:19;;;;;;;;;;;18.70;62.30;;;;;;5057041;28;1922;-70
2022/12/01 01:42:45;;;;;;;;;;;18.70;62.30;;;;;;5059536;28;892;-70
2022/12/01 01:45:28;;;;;;;;;;;18.60;62.20;;;;;;5061713;28;860;-70
2022/12/01 01:47:54;;;;;;;;;;;18.60;62.20;;;;;;5060360;28;1304;-70
2022/12/01 01:50:21;;;;;;;;;;;18.70;62.30;;;;;;5058142;28;1010;-70
2022/12/01 01:53:06;;;;;;;;;;;18.60;62.30;;;;;;5037874;28;903;-70
2022/12/01 01:55:32;;;;;;;;;;;18.60;63.10;;;;;;5058285;28;1026;-71
2022/12/01 01:57:58;;;;;;;;;;;18.60;62.30;;;;;;5039933;28;1967;-71
2022/12/01 02:00:24;;;;;;;;;;;18.70;62.40;;;;;;5057077;28;808;-70
2022/12/01 02:02:50;;;;;;;;;;;18.60;62.30;;;;;;5057266;28;813;-70
2022/12/01 02:05:17;;;;;;;;;;;18.60;62.30;;;;;;5062252;28;835;-70
2022/12/01 02:07:42;;;;;;;;;;;18.60;63.10;;;;;;5043393;28;911;-70
2022/12/01 02:10:08;;;;;;;;;;;18.70;62.40;;;;;;5039100;28;1266;-70
2022/12/01 02:12:42;;;;;;;;;;;18.60;62.30;;;;;;5059638;28;1086;-70
2022/12/01 02:15:08;;;;;;;;;;;18.60;62.40;;;;;;5060434;28;1251;-70
2022/12/01 02:17:33;;;;;;;;;;;18.60;62.30;;;;;;5060570;28;856;-71
2022/12/01 02:20:11;;;;;;;;;;;18.60;62.40;;;;;;5063326;28;1979;-71
2022/12/01 02:22:45;;;;;;;;;;;18.60;62.40;;;;;;5062189;28;825;-70
2022/12/01 02:25:17;;;;;;;;;;;18.60;62.40;;;;;;5058953;28;867;-70
2022/12/01 02:28:05;;;;;;;;;;;18.60;62.40;;;;;;5038105;28;800;-70
2022/12/01 02:30:40;;;;;;;;;;;18.60;62.40;;;;;;5042035;28;828;-70
2022/12/01 02:33:08;;;;;;;;;;;18.60;62.40;;;;;;5043384;28;1255;-70
2022/12/01 02:35:40;;;;;;;;;;;18.60;62.40;;;;;;5043270;28;878;-70
2022/12/01 02:38:20;;;;;;;;;;;18.60;62.40;;;;;;5057933;28;1894;-70
2022/12/01 02:40:49;;;;;;;;;;;18.60;62.40;;;;;;5050900;28;927;-70
2022/12/01 02:43:17;;;;;;;;;;;18.60;62.40;;;;;;5042301;28;914;-70
2022/12/01 02:45:50;;;;;;;;;;;18.60;62.40;;;;;;5050425;28;1298;-71
2022/12/01 02:48:36;;;;;;;;;;;18.60;62.50;;;;;;5050706;28;1263;-71
2022/12/01 02:51:05;;;;;;;;;;;18.60;62.40;;;;;;5057608;28;1229;-71
2022/12/01 02:53:30;;;;;;;;;;;18.60;62.40;;;;;;5042988;28;978;-71
2022/12/01 02:55:56;;;;;;;;;;;18.60;62.50;;;;;;5057157;28;1006;-71
2022/12/01 02:58:22;;;;;;;;;;;18.60;62.50;;;;;;5059771;28;1964;-71
2022/12/01 03:01:06;;;;;;;;;;;18.60;62.50;;;;;;5041656;28;816;-71
2022/12/01 03:03:35;;;;;;;;;;;18.60;62.50;;;;;;5063156;28;899;-70
2022/12/01 03:06:11;;;;;;;;;;;18.60;62.50;;;;;;5060600;28;856;-71
2022/12/01 03:09:03;;;;;;;;;;;18.60;62.50;;;;;;5043755;28;1395;-71
2022/12/01 03:11:37;;;;;;;;;;;18.60;62.50;;;;;;5056129;28;1183;-71
2022/12/01 03:14:19;;;;;;;;;;;18.60;62.50;;;;;;5040553;28;1031;-71
2022/12/01 03:16:44;;;;;;;;;;;18.60;62.50;;;;;;5060387;28;934;-71
2022/12/01 03:19:13;;;;;;;;;;;18.60;62.50;;;;;;5059097;28;1902;-70
2022/12/01 03:21:41;;;;;;;;;;;18.60;62.50;;;;;;5039880;28;1085;-71
2022/12/01 03:24:16;;;;;;;;;;;18.60;62.50;;;;;;5039929;28;808;-71
2022/12/01 03:26:44;;;;;;;;;;;18.60;62.50;;;;;;5049413;28;1073;-70
2022/12/01 03:29:14;;;;;;;;;;;18.60;62.60;;;;;;5051745;28;1277;-71
2022/12/01 03:31:44;;;;;;;;;;;18.60;62.60;;;;;;5039113;28;911;-71
2022/12/01 03:34:13;;;;;;;;;;;18.60;62.60;;;;;;5043624;28;1101;-71
2022/12/01 03:36:39;;;;;;;;;;;18.60;62.50;;;;;;5055980;28;824;-71
2022/12/01 03:39:06;;;;;;;;;;;18.50;62.50;;;;;;5049632;28;1910;-70
2022/12/01 03:41:36;;;;;;;;;;;18.60;62.60;;;;;;5049563;28;938;-71
2022/12/01 03:44:10;;;;;;;;;;;18.60;62.60;;;;;;5049441;28;968;-70
2022/12/01 03:46:45;;;;;;;;;;;18.60;62.70;;;;;;5042019;28;1109;-71
2022/12/01 03:49:10;;;;;;;;;;;18.60;62.60;;;;;;5046410;28;1318;-70
2022/12/01 03:51:49;;;;;;;;;;;18.50;62.60;;;;;;5059092;28;775;-70
2022/12/01 03:54:17;;;;;;;;;;;18.50;62.60;;;;;;5037842;28;1008;-70
2022/12/01 03:56:47;;;;;;;;;;;18.60;62.70;;;;;;5041279;28;915;-70
2022/12/01 03:59:12;;;;;;;;;;;18.60;62.70;;;;;;5044382;28;1890;-70
2022/12/01 04:01:37;;;;;;;;;;;18.60;62.70;;;;;;5041096;28;918;-70
2022/12/01 04:04:06;;;;;;;;;;;18.60;62.70;;;;;;5055418;28;784;-71
2022/12/01 04:06:32;;;;;;;;;;;18.50;62.60;;;;;;5038414;28;1073;-70
2022/12/01 04:08:57;;;;;;;;;;;18.50;62.70;;;;;;5036778;28;1343;-70
2022/12/01 04:14:07;;;;;;;;;;;18.50;62.60;;;;;;5059026;28;1296;-70
2022/12/01 04:16:33;;;;;;;;;;;18.50;62.60;;;;;;5057590;28;928;-70
2022/12/01 04:18:58;;;;;;;;;;;18.50;62.70;;;;;;5057641;28;1901;-71
2022/12/01 04:21:23;;;;;;;;;;;18.50;62.70;;;;;;5054695;28;1010;-70
2022/12/01 04:24:01;;;;;;;;;;;18.50;62.70;;;;;;5060161;28;839;-71
2022/12/01 04:26:28;;;;;;;;;;;18.60;62.70;;;;;;5045071;28;891;-71
2022/12/01 04:28:53;;;;;;;;;;;18.50;62.60;;;;;;5056981;28;1288;-70
2022/12/01 04:31:18;;;;;;;;;;;18.50;62.70;;;;;;5054962;28;842;-70
2022/12/01 04:33:44;;;;;;;;;;;18.50;62.70;;;;;;5057752;28;804;-71
2022/12/01 04:36:09;;;;;;;;;;;18.50;62.70;;;;;;5039693;28;883;-71
2022/12/01 04:38:36;;;;;;;;;;;18.50;62.60;;;;;;5059541;28;1963;-71
2022/12/01 04:41:07;;;;;;;;;;;18.50;62.60;;;;;;5059226;28;856;-70
2022/12/01 04:43:32;;;;;;;;;;;18.50;62.70;;;;;;5041015;28;933;-70
2022/12/01 04:45:58;;;;;;;;;;;18.50;62.60;;;;;;5059460;28;807;-70
2022/12/01 04:48:23;;;;;;;;;;;18.50;62.60;;;;;;5038675;28;1335;-70
2022/12/01 04:50:49;;;;;;;;;;;18.50;62.60;;;;;;5057954;28;875;-71
2022/12/01 04:53:14;;;;;;;;;;;18.50;62.60;;;;;;5058824;28;785;-70
2022/12/01 04:55:39;;;;;;;;;;;18.60;62.70;;;;;;5060295;28;847;-70
2022/12/01 04:58:05;;;;;;;;;;;18.60;62.70;;;;;;5062199;28;1268;-70
2022/12/01 05:00:30;;;;;;;;;;;18.50;62.60;;;;;;5059314;28;880;-70
2022/12/01 05:02:56;;;;;;;;;;;18.60;63.30;;;;;;5064059;28;1002;-70
2022/12/01 05:05:22;;;;;;;;;;;18.50;62.50;;;;;;5052072;28;1261;-70
2022/12/01 05:07:47;;;;;;;;;;;18.60;62.50;;;;;;5061089;28;1699;-70
2022/12/01 05:10:13;;;;;;;;;;;18.60;62.50;;;;;;5058600;28;1034;-70
2022/12/01 05:12:40;;;;;;;;;;;18.60;62.50;;;;;;5065796;28;1335;-70
2022/12/01 05:15:06;;;;;;;;;;;18.60;62.40;;;;;;5061546;28;866;-70
2022/12/01 05:17:31;;;;;;;;;;;18.60;62.40;;;;;;5061452;28;873;-70
2022/12/01 05:22:41;;;;;;;;;;;18.70;62.40;;;;;;5062415;28;817;-70
2022/12/01 05:25:06;;;;;;;;;;;18.60;62.20;;;;;;5062633;28;843;-70
2022/12/01 05:27:32;;;;;;;;;;;18.70;62.20;;;;;;5057276;28;1555;-70
2022/12/01 05:29:57;;;;;;;;;;;18.70;62.10;;;;;;5057263;28;1274;-70
2022/12/01 05:32:22;;;;;;;;;;;18.70;62.00;;;;;;5059160;28;792;-70
2022/12/01 05:34:48;;;;;;;;;;;18.80;62.00;;;;;;5060847;28;940;-70
2022/12/01 05:37:13;;;;;;;;;;;18.80;61.90;;;;;;5061820;28;1057;-70
2022/12/01 05:39:39;;;;;;;;;;;18.80;61.80;;;;;;5062653;28;1894;-70
2022/12/01 05:42:04;;;;;;;;;;;18.80;61.70;;;;;;5060186;28;1034;-70
2022/12/01 05:44:30;;;;;;;;;;;18.80;61.70;;;;;;5048102;28;946;-70
2022/12/01 05:46:55;;;;;;;;;;;18.80;61.70;;;;;;5063025;28;868;-70
2022/12/01 05:49:21;;;;;;;;;;;18.90;61.60;;;;;;5065093;28;1264;-70
2022/12/01 05:51:46;;;;;;;;;;;18.90;61.50;;;;;;5060320;28;962;-70
2022/12/01 05:54:12;;;;;;;;;;;18.90;61.50;;;;;;5059629;28;1222;-70
2022/12/01 05:56:37;;;;;;;;;;;18.90;61.40;;;;;;5061517;28;1080;-70
2022/12/01 05:59:03;;;;;;;;;;;18.90;61.40;;;;;;5057157;28;1909;-70
2022/12/01 06:01:28;;;;;;;;;;;18.90;61.40;;;;;;5056651;28;1214;-70
2022/12/01 06:03:54;;;;;;;;;;;18.90;61.30;;;;;;5042963;28;895;-70
2022/12/01 06:06:19;;;;;;;;;;;18.90;61.30;;;;;;5060518;28;1066;-70
2022/12/01 06:08:44;;;;;;;;;;;19.00;61.30;;;;;;5057788;28;1334;-70
2022/12/01 06:11:10;;;;;;;;;;;19.00;61.30;;;;;;5059090;28;800;-70
2022/12/01 06:13:35;;;;;;;;;;;19.10;61.20;;;;;;5060275;28;1351;-70
2022/12/01 06:16:02;;;;;;;;;;;19.20;61.10;;;;;;5062266;28;922;-70
2022/12/01 06:18:29;;;;;;;;;;;19.30;61.00;;;;;;5039931;28;1965;-70
2022/12/01 06:20:54;;;;;;;;;;;19.40;60.90;;;;;;5059859;28;982;-70
2022/12/01 06:23:20;;;;;;;;;;;19.50;60.60;;;;;;5057122;28;828;-70
2022/12/01 06:25:46;;;;;;;;;;;19.60;60.30;;;;;;5057198;28;848;-69
2022/12/01 06:28:11;;;;;;;;;;;19.70;60.10;;;;;;5041234;28;1240;-70
2022/12/01 06:30:36;;;;;;;;;;;19.80;59.80;;;;;;5039019;28;1249;-70
2022/12/01 06:33:02;;;;;;;;;;;19.90;59.60;;;;;;5058644;28;872;-70
2022/12/01 06:35:27;;;;;;;;;;;20.00;59.40;;;;;;5059467;28;927;-70
2022/12/01 06:37:53;;;;;;;;;;;20.10;59.20;;;;;;5057272;28;1216;-70
2022/12/01 06:40:19;;;;;;;;;;;20.20;59.00;;;;;;5059834;28;1961;-70
2022/12/01 06:42:44;;;;;;;;;;;20.30;58.80;;;;;;5055064;28;1640;-70
2022/12/01 06:45:10;;;;;;;;;;;20.40;58.60;;;;;;5056050;28;895;-70
2022/12/01 06:47:35;;;;;;;;;;;20.40;58.40;;;;;;5052716;28;1065;-70
2022/12/01 06:50:01;;;;;;;;;;;20.50;58.30;;;;;;5060461;28;1426;-70
2022/12/01 06:52:26;;;;;;;;;;;20.50;58.20;;;;;;5060421;28;798;-70
2022/12/01 06:54:52;;;;;;;;;;;20.60;58.10;;;;;;5042271;28;903;-71
2022/12/01 06:57:17;;;;;;;;;;;20.60;58.00;;;;;;5061046;28;886;-70
2022/12/01 06:59:43;;;;;;;;;;;20.60;58.00;;;;;;5059769;28;1965;-70
2022/12/01 07:02:11;;;;;;;;;;;20.60;57.90;;;;;;5057371;28;840;-70
2022/12/01 07:04:36;;;;;;;;;;;20.60;57.90;;;;;;5038263;28;879;-70
2022/12/01 07:07:03;;;;;;;;;;;20.60;57.90;;;;;;5058448;28;1241;-71
2022/12/01 07:09:28;;;;;;;;;;;20.60;57.90;;;;;;5048617;28;1875;-71
2022/12/01 07:11:54;;;;;;;;;;;20.60;58.00;;;;;;5060102;28;1427;-71
2022/12/01 07:14:23;;;;;;;;;;;20.70;58.10;;;;;;5062518;28;1233;-72
2022/12/01 07:16:48;;;;;;;;;;;20.70;58.10;;;;;;5058144;28;809;-72
2022/12/01 07:19:14;;;;;;;;;;;20.60;58.10;;;;;;5060936;28;1971;-72
2022/12/01 07:21:39;;;;;;;;;;;20.60;58.10;;;;;;5057364;28;891;-71
2022/12/01 07:24:05;;;;;;;;;;;20.60;58.10;;;;;;5053893;28;836;-71
2022/12/01 07:26:30;;;;;;;;;;;20.60;58.10;;;;;;5057131;28;809;-70
2022/12/01 07:28:56;;;;;;;;;;;20.60;58.10;;;;;;5053791;28;1244;-71
2022/12/01 07:31:21;;;;;;;;;;;20.60;58.10;;;;;;5056605;28;891;-72
2022/12/01 07:33:47;;;;;;;;;;;20.60;58.20;;;;;;5056973;28;899;-69
2022/12/01 07:36:12;;;;;;;;;;;20.50;58.20;;;;;;5056032;28;864;-69
2022/12/01 07:38:38;;;;;;;;;;;20.50;58.20;;;;;;5039752;28;1965;-69
2022/12/01 07:41:10;;;;;;;;;;;20.50;58.20;;;;;;5056301;28;1065;-69
2022/12/01 07:43:35;;;;;;;;;;;20.50;58.30;;;;;;5057649;28;906;-69
2022/12/01 07:46:08;;;;;;;;;;;20.50;58.30;;;;;;5046169;28;883;-70
2022/12/01 07:48:34;;;;;;;;;;;20.50;58.30;;;;;;5053763;28;1353;-71
2022/12/01 07:50:59;;;;;;;;;;;20.40;58.40;;;;;;5057823;28;884;-71
2022/12/01 07:53:25;;;;;;;;;;;20.40;58.40;;;;;;5057300;28;873;-71
2022/12/01 07:55:50;;;;;;;;;;;20.40;58.40;;;;;;5055969;28;875;-71
2022/12/01 07:58:16;;;;;;;;;;;20.40;58.50;;;;;;5056483;28;1979;-71
2022/12/01 08:00:41;;;;;;;;;;;20.40;58.60;;;;;;5038574;28;864;-71
2022/12/01 08:03:07;;;;;;;;;;;20.40;58.60;;;;;;5053712;28;947;-71
2022/12/01 08:05:32;;;;;;;;;;;20.30;58.60;;;;;;5039078;28;1251;-71
2022/12/01 08:07:58;;;;;;;;;;;20.30;58.70;;;;;;5059293;28;1449;-71
2022/12/01 08:10:23;;;;;;;;;;;20.30;58.70;;;;;;5058829;28;880;-71
2022/12/01 08:12:49;;;;;;;;;;;20.30;58.70;;;;;;5059218;28;1375;-71
2022/12/01 08:15:14;;;;;;;;;;;20.30;59.20;;;;;;5046534;28;1301;-72
2022/12/01 08:17:40;;;;;;;;;;;20.30;59.60;;;;;;5058791;28;1329;-72
2022/12/01 08:20:06;;;;;;;;;;;20.20;59.90;;;;;;5059462;28;1906;-72
2022/12/01 08:22:31;;;;;;;;;;;20.20;60.00;;;;;;5060025;28;1562;-71
2022/12/01 08:24:56;;;;;;;;;;;20.20;60.10;;;;;;5060272;28;1356;-71
2022/12/01 08:27:22;;;;;;;;;;;20.20;60.30;;;;;;5060828;28;1562;-71
2022/12/01 08:29:47;;;;;;;;;;;20.20;60.30;;;;;;5066623;28;1399;-72
2022/12/01 08:32:13;;;;;;;;;;;20.20;60.40;;;;;;5064882;28;1265;-71
2022/12/01 08:34:40;;;;;;;;;;;20.20;60.70;;;;;;5046099;28;2338;-69
2022/12/01 08:37:05;;;;;;;;;;;20.30;60.70;;;;;;5045950;28;2017;-70
2022/12/01 08:39:31;;;;;;;;;;;20.30;60.60;;;;;;5037679;28;1965;-70
2022/12/01 08:41:56;;;;;;;;;;;20.30;60.70;;;;;;5062831;28;1369;-71
2022/12/01 08:44:22;;;;;;;;;;;20.30;60.70;;;;;;5067477;28;1010;-71
2022/12/01 08:46:47;;;;;;;;;;;20.30;60.80;;;;;;5059635;28;1126;-71
2022/12/01 08:49:13;;;;;;;;;;;20.30;60.70;;;;;;5061508;28;1220;-71
2022/12/01 08:51:38;;;;;;;;;;;20.30;60.80;;;;;;5058048;28;1022;-70
2022/12/01 08:54:04;;;;;;;;;;;20.30;60.80;;;;;;5063144;28;920;-70
2022/12/01 08:56:30;;;;;;;;;;;20.20;60.70;;;;;;5059464;28;927;-70
2022/12/01 08:58:56;;;;;;;;;;;20.20;60.80;;;;;;5059937;28;1971;-70
2022/12/01 09:01:22;;;;;;;;;;;20.20;60.70;;;;;;5040107;28;852;-70
2022/12/01 09:03:47;;;;;;;;;;;20.20;60.70;;;;;;5062113;28;1038;-70
2022/12/01 09:06:13;;;;;;;;;;;20.20;60.80;;;;;;5060036;28;1033;-70
2022/12/01 09:08:38;;;;;;;;;;;20.20;60.70;;;;;;5061654;28;2115;-70
2022/12/01 09:11:05;;;;;;;;;;;20.20;60.80;;;;;;5046316;28;1449;-70
2022/12/01 09:13:33;;;;;;;;;;;20.20;60.90;;;;;;5053028;28;1311;-70
2022/12/01 09:16:00;;;;;;;;;;;20.20;60.80;;;;;;5043149;28;886;-70
2022/12/01 09:18:25;;;;;;;;;;;20.20;60.90;;;;;;5041429;28;1961;-71
2022/12/01 09:20:51;;;;;;;;;;;20.20;60.80;;;;;;5059885;28;820;-70
2022/12/01 09:23:16;;;;;;;;;;;20.20;60.90;;;;;;5058634;28;867;-70
2022/12/01 09:25:42;;;;;;;;;;;20.20;60.90;;;;;;5061372;28;2249;-70
2022/12/01 09:28:07;;;;;;;;;;;20.20;61.00;;;;;;5063862;28;1556;-70
2022/12/01 09:30:33;;;;;;;;;;;20.20;61.00;;;;;;5064107;28;1421;-70
2022/12/01 09:32:59;;;;;;;;;;;20.20;61.30;;;;;;5062060;28;1415;-70
2022/12/01 09:35:25;;;;;;;;;;;20.20;61.30;;;;;;5058212;28;1359;-70
2022/12/01 09:37:50;;;;;;;;;;;20.20;61.30;;;;;;5062790;28;1835;-70
2022/12/01 09:40:16;;;;;;;;;;;20.20;61.40;;;;;;5064333;28;1898;-70
2022/12/01 09:42:42;;;;;;;;;;;20.20;61.40;;;;;;5040880;28;942;-70
2022/12/01 09:45:09;;;;;;;;;;;20.20;61.50;;;;;;5041683;28;1077;-70
2022/12/01 09:47:35;;;;;;;;;;;20.10;61.40;;;;;;5042898;28;937;-70
2022/12/01 09:50:13;;;;;;;;;;;20.10;61.40;;;;;;5042270;28;1406;-70
2022/12/01 09:52:49;;;;;;;;;;;20.10;61.60;;;;;;5040558;28;1307;-70
2022/12/01 09:55:16;;;;;;;;;;;20.10;61.60;;;;;;5051798;28;851;-70
2022/12/01 09:57:41;;;;;;;;;;;20.10;61.70;;;;;;5041601;28;965;-70
2022/12/01 10:00:07;;;;;;;;;;;20.10;61.70;;;;;;5045111;28;2276;-70
2022/12/01 10:02:34;;;;;;;;;;;20.10;61.80;;;;;;5063641;28;1363;-70
2022/12/01 10:05:01;;;;;;;;;;;20.10;61.90;;;;;;5042911;28;2093;-70
2022/12/01 10:07:29;;;;;;;;;;;20.10;61.90;;;;;;5046697;28;1398;-70
2022/12/01 10:09:56;;;;;;;;;;;20.10;61.90;;;;;;5041848;28;1299;-70
2022/12/01 10:12:26;;;;;;;;;;;20.10;62.00;;;;;;5040402;28;1364;-70
2022/12/01 10:14:51;;;;;;;;;;;20.10;62.00;;;;;;5048846;28;1094;-71
2022/12/01 10:17:43;;;;;;;;;;;20.10;62.00;;;;;;5055637;28;857;-70
2022/12/01 10:20:10;;;;;;;;;;;20.10;62.00;;;;;;5055783;28;2162;-69
2022/12/01 10:22:48;;;;;;;;;;;20.10;62.10;;;;;;5061583;28;1332;-69
2022/12/01 10:25:33;;;;;;;;;;;20.10;62.10;;;;;;5061847;28;1530;-69
2022/12/01 10:27:59;;;;;;;;;;;20.10;62.10;;;;;;5062055;28;1391;-70
2022/12/01 10:30:24;;;;;;;;;;;20.10;62.10;;;;;;5059752;28;1315;-69
2022/12/01 10:33:01;;;;;;;;;;;20.10;62.00;;;;;;5041338;28;879;-69
2022/12/01 10:35:28;;;;;;;;;;;20.10;62.00;;;;;;5042200;28;954;-69
2022/12/01 10:37:55;;;;;;;;;;;20.10;62.00;;;;;;5056782;28;1353;-69
2022/12/01 10:40:20;;;;;;;;;;;20.10;62.20;;;;;;5040055;28;1959;-69
2022/12/01 10:42:46;;;;;;;;;;;20.10;62.20;;;;;;5039630;28;895;-69
2022/12/01 10:45:25;;;;;;;;;;;20.10;62.20;;;;;;5041298;28;2142;-69
2022/12/01 10:48:09;;;;;;;;;;;20.10;62.30;;;;;;5044848;28;1360;-69
2022/12/01 10:50:35;;;;;;;;;;;20.10;62.20;;;;;;5059994;28;1942;-69
2022/12/01 10:53:00;;;;;;;;;;;20.10;62.30;;;;;;5047242;28;1500;-69
2022/12/01 10:55:27;;;;;;;;;;;20.10;62.30;;;;;;5055043;28;1453;-69
2022/12/01 10:57:53;;;;;;;;;;;20.00;62.30;;;;;;5064887;28;1343;-69
2022/12/01 11:00:20;;;;;;;;;;;20.00;62.30;;;;;;5043654;28;1955;-69
2022/12/01 11:02:45;;;;;;;;;;;20.10;62.40;;;;;;5050559;28;1275;-69
2022/12/01 11:05:31;;;;;;;;;;;20.00;62.40;;;;;;5041330;28;1003;-69
2022/12/01 11:07:57;;;;;;;;;;;20.10;62.50;;;;;;5049796;28;1704;-69
2022/12/01 11:10:23;;;;;;;;;;;20.00;62.50;;;;;;5040526;28;815;-69
2022/12/01 11:12:52;;;;;;;;;;;20.00;62.70;;;;;;5059814;28;1294;-69
2022/12/01 11:15:22;;;;;;;;;;;20.00;62.50;;;;;;5051213;28;1324;-69
2022/12/01 11:17:48;;;;;;;;;;;20.10;62.70;;;;;;5034548;28;897;-69
2022/12/01 11:20:33;;;;;;;;;;;20.00;62.60;;;;;;5050455;28;1998;-69
2022/12/01 11:23:17;;;;;;;;;;;20.10;62.80;;;;;;5058127;28;854;-69
2022/12/01 11:25:54;;;;;;;;;;;20.10;62.70;;;;;;5057321;28;853;-69
2022/12/01 11:28:20;;;;;;;;;;;20.00;62.70;;;;;;5055782;28;1266;-68
2022/12/01 11:30:45;;;;;;;;;;;20.10;62.80;;;;;;5059382;28;883;-68
2022/12/01 11:33:11;;;;;;;;;;;20.10;62.90;;;;;;5059255;28;794;-68
2022/12/01 11:35:36;;;;;;;;;;;20.10;63.60;;;;;;5036991;28;1261;-68
2022/12/01 11:38:03;;;;;;;;;;;20.10;62.80;;;;;;5057411;28;1284;-68
2022/12/01 11:40:32;;;;;;;;;;;20.10;62.70;;;;;;5058885;28;1957;-68
2022/12/01 11:42:58;;;;;;;;;;;20.10;63.50;;;;;;5058184;28;1679;-68
2022/12/01 11:45:25;;;;;;;;;;;20.10;62.70;;;;;;5035743;28;883;-68
2022/12/01 11:48:10;;;;;;;;;;;20.00;62.70;;;;;;5049899;28;1230;-69
2022/12/01 11:50:36;;;;;;;;;;;20.00;62.60;;;;;;5058507;28;824;-69
2022/12/01 11:53:02;;;;;;;;;;;20.10;62.80;;;;;;5038644;28;838;-68
2022/12/01 11:55:28;;;;;;;;;;;20.00;62.80;;;;;;5055492;28;871;-68
2022/12/01 11:57:55;;;;;;;;;;;20.00;62.70;;;;;;5057570;28;1260;-69
2022/12/01 12:00:22;;;;;;;;;;;20.00;63.00;;;;;;5063584;28;1898;-69
2022/12/01 12:03:04;;;;;;;;;;;20.00;63.00;;;;;;5051461;28;2252;-69
2022/12/01 12:05:34;;;;;;;;;;;20.10;63.00;;;;;;5047149;28;1490;-69
2022/12/01 12:08:04;;;;;;;;;;;20.00;62.90;;;;;;5046651;28;1326;-68
2022/12/01 12:10:50;;;;;;;;;;;20.00;63.00;;;;;;5053855;28;1784;-68
2022/12/01 12:13:15;;;;;;;;;;;20.10;63.10;;;;;;5013412;28;1480;-67
2022/12/01 12:15:41;;;;;;;;;;;20.10;63.10;;;;;;5061049;28;1319;-67
2022/12/01 12:18:25;;;;;;;;;;;20.10;63.00;;;;;;5063335;28;1314;-71
2022/12/01 12:20:50;;;;;;;;;;;20.10;63.00;;;;;;5062640;28;1034;-71
2022/12/01 12:23:34;;;;;;;;;;;20.10;62.90;;;;;;5064477;28;967;-71
2022/12/01 12:26:13;;;;;;;;;;;20.10;63.00;;;;;;5053132;28;1090;-71
2022/12/01 12:28:58;;;;;;;;;;;20.10;63.00;;;;;;5044706;28;1256;-71
2022/12/01 12:31:29;;;;;;;;;;;20.10;63.00;;;;;;5061003;28;879;-71
2022/12/01 12:33:55;;;;;;;;;;;20.10;63.10;;;;;;5063178;28;859;-69
2022/12/01 12:36:26;;;;;;;;;;;20.10;63.10;;;;;;5073273;28;1026;-69
2022/12/01 12:39:01;;;;;;;;;;;20.10;63.00;;;;;;5043798;28;1998;-69
2022/12/01 12:41:47;;;;;;;;;;;20.10;63.10;;;;;;5053633;28;999;-69
2022/12/01 12:44:31;;;;;;;;;;;20.10;63.20;;;;;;5043695;28;1073;-69
2022/12/01 12:47:15;;;;;;;;;;;20.10;63.20;;;;;;5058405;28;981;-70
2022/12/01 12:49:46;;;;;;;;;;;20.10;63.10;;;;;;5063286;28;1290;-69
2022/12/01 12:52:11;;;;;;;;;;;20.10;63.20;;;;;;5042055;28;1018;-68
2022/12/01 12:54:50;;;;;;;;;;;20.10;63.10;;;;;;5064869;28;2169;-68
2022/12/01 12:57:18;;;;;;;;;;;20.10;63.20;;;;;;5044010;28;2506;-68
2022/12/01 12:59:46;;;;;;;;;;;20.10;63.10;;;;;;5062040;28;1906;-68
2022/12/01 13:02:13;;;;;;;;;;;20.10;63.20;;;;;;5042937;28;1144;-67
2022/12/01 13:04:51;;;;;;;;;;;20.10;63.30;;;;;;5042862;28;880;-67
2022/12/01 13:07:16;;;;;;;;;;;20.10;59.20;;;;;;5050908;28;825;-67
2022/12/01 13:09:43;;;;;;;;;;;20.00;55.50;;;;;;5061494;28;1291;-67
2022/12/01 13:12:14;;;;;;;;;;;19.90;53.50;;;;;;5037291;28;1200;-67
2022/12/01 13:14:39;;;;;;;;;;;19.80;52.50;;;;;;5051650;28;1121;-67
2022/12/01 13:17:17;;;;;;;;;;;19.80;51.70;;;;;;5060688;28;895;-67
2022/12/01 13:19:42;;;;;;;;;;;19.70;50.50;;;;;;5059869;28;1898;-67
2022/12/01 13:22:08;;;;;;;;;;;19.60;49.60;;;;;;5040851;28;828;-67
2022/12/01 13:24:34;;;;;;;;;;;19.60;49.50;;;;;;5043001;28;867;-67
2022/12/01 13:27:01;;;;;;;;;;;19.50;48.80;;;;;;5041331;28;958;-68
2022/12/01 13:29:28;;;;;;;;;;;19.50;48.30;;;;;;5039634;28;1278;-67
2022/12/01 13:31:54;;;;;;;;;;;19.40;48.00;;;;;;5034967;28;1244;-67
2022/12/01 13:34:35;;;;;;;;;;;19.40;47.50;;;;;;5045688;28;990;-67
2022/12/01 13:37:00;;;;;;;;;;;19.40;47.40;;;;;;5060682;28;1909;-67
2022/12/01 13:39:26;;;;;;;;;;;19.30;47.10;;;;;;5061301;28;1879;-67
2022/12/01 13:41:56;;;;;;;;;;;19.30;47.30;;;;;;5045552;28;2197;-67
2022/12/01 13:44:22;;;;;;;;;;;19.20;46.70;;;;;;5043851;28;1163;-67
2022/12/01 13:46:47;;;;;;;;;;;19.20;46.90;;;;;;5044298;28;1424;-67
2022/12/01 13:49:32;;;;;;;;;;;19.20;47.00;;;;;;5060291;28;2057;-68
2022/12/01 13:52:16;;;;;;;;;;;19.20;46.60;;;;;;5066623;28;2107;-67
2022/12/01 13:55:08;;;;;;;;;;;19.10;46.50;;;;;;5062393;28;1900;-67
2022/12/01 13:57:34;;;;;;;;;;;19.00;49.20;;;;;;5004131;28;2213;-68
2022/12/01 14:00:02;;;;;;;;;;;19.00;50.00;;;;;;5040631;28;1902;-68
2022/12/01 14:02:28;;;;;;;;;;;19.00;48.80;;;;;;5053126;28;964;-68
2022/12/01 14:04:54;;;;;;;;;;;19.00;49.30;;;;;;5045340;28;1456;-68
2022/12/01 14:07:25;;;;;;;;;;;19.00;48.50;;;;;;5057030;28;825;-68
2022/12/01 14:10:04;;;;;;;;;;;18.90;48.80;;;;;;5060158;28;1332;-68
2022/12/01 14:12:33;;;;;;;;;;;18.90;49.20;;;;;;5061773;28;1820;-68
2022/12/01 14:14:59;;;;;;;;;;;18.90;49.50;;;;;;5050577;28;1322;-68
2022/12/01 14:17:27;;;;;;;;;;;18.90;49.80;;;;;;5039906;28;1381;-68
2022/12/01 14:19:53;;;;;;;;;;;18.90;50.10;;;;;;5043410;28;1977;-68
2022/12/01 14:22:49;;;;;;;;;;;18.90;50.50;;;;;;5043070;28;1588;-69
2022/12/01 14:25:21;;;;;;;;;;;18.90;50.80;;;;;;5046303;28;1850;-68
2022/12/01 14:27:56;;;;;;;;;;;18.90;51.20;;;;;;5059783;28;893;-69
2022/12/01 14:30:44;;;;;;;;;;;18.90;51.40;;;;;;5041874;28;875;-71
2022/12/01 14:33:28;;;;;;;;;;;18.80;51.60;;;;;;5062221;28;899;-69
2022/12/01 14:35:57;;;;;;;;;;;18.90;51.90;;;;;;5062086;28;2111;-69
2022/12/01 14:38:22;;;;;;;;;;;18.80;52.10;;;;;;5040922;28;1426;-69
2022/12/01 14:40:47;;;;;;;;;;;18.80;52.30;;;;;;5051421;28;1882;-70
2022/12/01 14:46:02;;;;;;;;;;;18.80;52.70;;;;;;5063913;28;1914;-70
2022/12/01 14:48:36;;;;;;;;;;;18.80;52.90;;;;;;5039907;28;1374;-69
2022/12/01 14:51:25;;;;;;;;;;;18.80;53.10;;;;;;5056900;28;820;-69
2022/12/01 14:53:50;;;;;;;;;;;18.80;53.30;;;;;;5046910;28;1111;-69